createdAt,value
2019-01-15T00:00:24.336Z,882.53
2019-01-15T00:01:23.895Z,882.58
2019-01-15T00:03:17.243Z,882.56
2019-01-15T00:04:17.255Z,882.58
2019-01-15T00:06:11.656Z,882.53
2019-01-15T00:07:10.585Z,882.51
2019-01-15T00:09:03.703Z,882.56
2019-01-15T00:10:03.730Z,882.53
2019-01-15T00:11:57.306Z,882.58
2019-01-15T00:12:56.819Z,882.59
2019-01-15T00:14:50.171Z,882.59
2019-01-15T00:15:50.164Z,882.57
2019-01-15T00:17:43.673Z,882.52
2019-01-15T00:18:43.771Z,882.53
2019-01-15T00:20:37.421Z,882.56
2019-01-15T00:21:37.057Z,882.54
2019-01-15T00:23:30.647Z,882.51
2019-01-15T00:24:30.143Z,882.51
2019-01-15T00:26:23.786Z,882.51
2019-01-15T00:27:23.774Z,882.49
2019-01-15T00:29:17.087Z,882.50
2019-01-15T00:30:17.124Z,882.48
2019-01-15T00:32:10.509Z,882.49
2019-01-15T00:33:10.480Z,882.47
2019-01-15T00:35:03.981Z,882.46
2019-01-15T00:36:03.543Z,882.45
2019-01-15T00:37:56.920Z,882.42
2019-01-15T00:38:56.876Z,882.41
2019-01-15T00:40:50.651Z,882.40
2019-01-15T00:41:50.226Z,882.38
2019-01-15T00:43:43.586Z,882.39
2019-01-15T00:44:43.841Z,882.38
2019-01-15T00:46:37.390Z,882.39
2019-01-15T00:47:37.202Z,882.35
2019-01-15T00:49:30.557Z,882.39
2019-01-15T00:50:30.512Z,882.39
2019-01-15T00:52:24.067Z,882.34
2019-01-15T00:53:23.855Z,882.37
2019-01-15T00:55:17.234Z,882.34
2019-01-15T00:56:16.946Z,882.37
2019-01-15T00:58:11.125Z,882.33
2019-01-15T00:59:10.279Z,882.34
2019-01-15T01:01:03.870Z,882.30
2019-01-15T01:02:03.897Z,882.34
2019-01-15T01:03:57.417Z,882.35
2019-01-15T01:04:57.241Z,882.37
2019-01-15T01:06:49.879Z,882.30
2019-01-15T01:07:49.861Z,882.30
2019-01-15T01:09:43.646Z,882.24
2019-01-15T01:10:43.399Z,882.28
2019-01-15T01:12:36.745Z,882.30
2019-01-15T01:13:36.511Z,882.25
2019-01-15T01:15:30.296Z,882.24
2019-01-15T01:16:30.134Z,882.26
2019-01-15T01:18:24.329Z,882.24
2019-01-15T01:19:23.794Z,882.23
2019-01-15T01:21:17.962Z,882.23
2019-01-15T01:22:17.352Z,882.22
2019-01-15T01:24:11.310Z,882.18
2019-01-15T01:25:10.448Z,882.13
2019-01-15T01:27:04.012Z,882.14
2019-01-15T01:28:04.055Z,882.08
2019-01-15T01:29:57.767Z,882.08
2019-01-15T01:30:57.394Z,882.05
2019-01-15T01:32:50.922Z,882.03
2019-01-15T01:33:50.765Z,882.03
2019-01-15T01:35:44.082Z,882.03
2019-01-15T01:36:44.041Z,882.03
2019-01-15T01:38:37.594Z,882.05
2019-01-15T01:39:37.177Z,881.97
2019-01-15T01:41:30.763Z,881.96
2019-01-15T01:42:30.500Z,881.98
2019-01-15T01:44:24.337Z,881.95
2019-01-15T01:45:24.108Z,881.97
2019-01-15T01:47:17.896Z,881.97
2019-01-15T01:48:17.882Z,881.98
2019-01-15T01:50:11.214Z,881.88
2019-01-15T01:51:11.224Z,881.85
2019-01-15T01:53:04.628Z,881.81
2019-01-15T01:54:04.551Z,881.83
2019-01-15T01:55:58.226Z,881.81
2019-01-15T01:56:57.746Z,881.82
2019-01-15T01:58:51.064Z,881.78
2019-01-15T01:59:51.339Z,881.78
2019-01-15T02:01:45.726Z,881.79
2019-01-15T02:02:45.526Z,881.78
2019-01-15T02:04:39.473Z,881.82
2019-01-15T02:05:38.639Z,881.83
2019-01-15T02:07:32.415Z,881.85
2019-01-15T02:08:31.956Z,881.83
2019-01-15T02:10:26.162Z,881.77
2019-01-15T02:11:25.585Z,881.75
2019-01-15T02:13:19.102Z,881.77
2019-01-15T02:14:18.870Z,881.71
2019-01-15T02:16:12.855Z,881.68
2019-01-15T02:17:12.235Z,881.68
2019-01-15T02:19:05.310Z,881.60
2019-01-15T02:20:04.863Z,881.58
2019-01-15T02:21:58.229Z,881.58
2019-01-15T02:22:58.217Z,881.53
2019-01-15T02:24:52.010Z,881.50
2019-01-15T02:25:51.560Z,881.49
2019-01-15T02:27:45.509Z,881.43
2019-01-15T02:28:45.195Z,881.44
2019-01-15T02:30:39.281Z,881.40
2019-01-15T02:31:38.474Z,881.37
2019-01-15T02:33:32.178Z,881.41
2019-01-15T02:34:31.601Z,881.35
2019-01-15T02:36:25.153Z,881.36
2019-01-15T02:37:25.214Z,881.34
2019-01-15T02:39:18.539Z,881.34
2019-01-15T02:40:18.312Z,881.31
2019-01-15T02:42:11.834Z,881.24
2019-01-15T02:43:11.635Z,881.23
2019-01-15T02:45:05.303Z,881.22
2019-01-15T02:46:04.937Z,881.22
2019-01-15T02:47:58.486Z,881.22
2019-01-15T02:48:58.538Z,881.26
2019-01-15T02:50:52.229Z,881.25
2019-01-15T02:51:51.620Z,881.24
2019-01-15T02:53:45.391Z,881.25
2019-01-15T02:54:45.140Z,881.25
2019-01-15T02:56:38.526Z,881.22
2019-01-15T02:57:38.504Z,881.21
2019-01-15T02:59:32.887Z,881.20
2019-01-15T03:00:32.096Z,881.19
2019-01-15T03:02:25.197Z,881.14
2019-01-15T03:03:25.209Z,881.11
2019-01-15T03:05:18.825Z,881.09
2019-01-15T03:06:18.605Z,881.07
2019-01-15T03:08:12.790Z,880.99
2019-01-15T03:09:12.212Z,881.01
2019-01-15T03:11:05.490Z,880.98
2019-01-15T03:12:05.287Z,880.98
2019-01-15T03:13:58.614Z,880.90
2019-01-15T03:14:58.877Z,880.89
2019-01-15T03:16:53.241Z,880.90
2019-01-15T03:17:53.068Z,880.88
2019-01-15T03:19:46.695Z,880.85
2019-01-15T03:20:46.943Z,880.86
2019-01-15T03:22:40.513Z,880.86
2019-01-15T03:23:40.309Z,880.84
2019-01-15T03:25:34.206Z,880.81
2019-01-15T03:26:33.609Z,880.76
2019-01-15T03:28:26.928Z,880.74
2019-01-15T03:29:26.710Z,880.71
2019-01-15T03:31:20.649Z,880.70
2019-01-15T03:32:20.310Z,880.67
2019-01-15T03:34:14.214Z,880.61
2019-01-15T03:35:13.396Z,880.62
2019-01-15T03:37:07.131Z,880.55
2019-01-15T03:38:06.963Z,880.52
2019-01-15T03:41:32.955Z,880.44
2019-01-15T03:42:32.129Z,880.39
2019-01-15T03:44:25.749Z,880.40
2019-01-15T03:45:25.506Z,880.35
2019-01-15T03:47:19.648Z,880.35
2019-01-15T03:48:18.836Z,880.34
2019-01-15T03:50:11.973Z,880.30
2019-01-15T03:51:11.976Z,880.25
2019-01-15T03:53:05.546Z,880.17
2019-01-15T03:54:05.294Z,880.15
2019-01-15T03:55:58.663Z,880.11
2019-01-15T03:56:58.356Z,880.13
2019-01-15T03:58:52.188Z,880.11
2019-01-15T03:59:51.977Z,880.09
2019-01-15T04:01:45.367Z,880.01
2019-01-15T04:02:45.062Z,880.01
2019-01-15T04:04:38.674Z,879.94
2019-01-15T04:05:38.429Z,879.89
2019-01-15T04:07:32.006Z,879.92
2019-01-15T04:08:31.740Z,879.88
2019-01-15T04:10:25.515Z,879.80
2019-01-15T04:11:25.116Z,879.77
2019-01-15T04:13:18.535Z,879.71
2019-01-15T04:14:18.746Z,879.71
2019-01-15T04:16:12.414Z,879.65
2019-01-15T04:17:11.838Z,879.60
2019-01-15T04:19:05.506Z,879.61
2019-01-15T04:20:05.183Z,879.56
2019-01-15T04:21:58.980Z,879.53
2019-01-15T04:22:58.748Z,879.47
2019-01-15T04:24:52.198Z,879.42
2019-01-15T04:25:51.832Z,879.37
2019-01-15T04:27:45.442Z,879.26
2019-01-15T04:28:45.437Z,879.25
2019-01-15T04:30:38.533Z,879.23
2019-01-15T04:31:38.790Z,879.23
2019-01-15T04:33:32.355Z,879.19
2019-01-15T04:34:32.137Z,879.14
2019-01-15T04:36:25.493Z,879.10
2019-01-15T04:37:25.215Z,879.08
2019-01-15T04:39:18.817Z,879.06
2019-01-15T04:40:18.790Z,879.01
2019-01-15T04:42:12.135Z,878.89
2019-01-15T04:43:19.399Z,878.97
2019-01-15T04:45:05.512Z,878.84
2019-01-15T04:46:05.510Z,878.90
2019-01-15T04:47:58.863Z,878.87
2019-01-15T04:48:58.822Z,878.82
2019-01-15T04:50:52.447Z,878.80
2019-01-15T04:51:51.949Z,878.77
2019-01-15T04:53:45.566Z,878.74
2019-01-15T04:54:45.505Z,878.68
2019-01-15T04:56:38.831Z,878.63
2019-01-15T04:57:38.625Z,878.66
2019-01-15T04:59:32.229Z,878.56
2019-01-15T05:00:32.223Z,878.57
2019-01-15T05:02:25.796Z,878.53
2019-01-15T05:03:25.331Z,878.44
2019-01-15T05:05:18.656Z,878.43
2019-01-15T05:06:18.671Z,878.48
2019-01-15T05:08:12.477Z,878.42
2019-01-15T05:09:13.668Z,878.37
2019-01-15T05:11:05.577Z,878.39
2019-01-15T05:12:05.345Z,878.34
2019-01-15T05:13:59.008Z,878.33
2019-01-15T05:14:58.688Z,878.28
2019-01-15T05:16:52.080Z,878.26
2019-01-15T05:17:52.035Z,878.25
2019-01-15T05:19:45.844Z,878.23
2019-01-15T05:20:45.375Z,878.22
2019-01-15T05:22:39.253Z,878.14
2019-01-15T05:23:39.271Z,878.14
2019-01-15T05:25:32.819Z,878.09
2019-01-15T05:26:32.873Z,878.07
2019-01-15T05:28:26.206Z,878.12
2019-01-15T05:29:26.173Z,878.11
2019-01-15T05:31:19.818Z,878.07
2019-01-15T05:32:19.561Z,878.09
2019-01-15T05:34:12.922Z,878.03
2019-01-15T05:35:12.925Z,878.01
2019-01-15T05:37:06.259Z,877.96
2019-01-15T05:38:06.009Z,877.96
2019-01-15T05:39:06.251Z,877.96
2019-01-15T05:40:06.252Z,877.96
2019-01-15T05:41:05.984Z,877.96
2019-01-15T05:42:06.017Z,877.94
2019-01-15T05:43:06.235Z,877.91
2019-01-15T05:44:05.965Z,877.90
2019-01-15T05:45:06.239Z,877.88
2019-01-15T05:46:06.240Z,877.85
2019-01-15T05:47:05.938Z,877.83
2019-01-15T05:48:05.967Z,877.88
2019-01-15T05:49:05.929Z,877.88
2019-01-15T05:50:06.212Z,877.94
2019-01-15T05:51:06.176Z,877.94
2019-01-15T05:52:06.176Z,877.88
2019-01-15T05:53:05.891Z,877.86
2019-01-15T05:54:06.147Z,877.86
2019-01-15T05:55:05.892Z,877.89
2019-01-15T05:56:05.872Z,877.80
2019-01-15T05:57:06.146Z,877.85
2019-01-15T05:58:06.125Z,877.78
2019-01-15T05:59:05.849Z,877.80
2019-01-15T06:00:06.082Z,877.79
2019-01-15T06:01:06.108Z,877.75
2019-01-15T06:02:06.085Z,877.75
2019-01-15T06:03:05.825Z,877.74
2019-01-15T06:04:06.079Z,877.72
2019-01-15T06:05:06.061Z,877.70
2019-01-15T06:06:05.841Z,877.70
2019-01-15T06:07:06.060Z,877.71
2019-01-15T06:08:05.828Z,877.65
2019-01-15T06:09:05.810Z,877.63
2019-01-15T06:10:05.771Z,877.66
2019-01-15T06:11:05.798Z,877.58
2019-01-15T06:12:06.023Z,877.59
2019-01-15T06:13:06.018Z,877.55
2019-01-15T06:14:05.979Z,877.59
2019-01-15T06:15:06.028Z,877.55
2019-01-15T06:16:06.002Z,877.54
2019-01-15T06:17:05.979Z,877.46
2019-01-15T06:18:05.741Z,877.53
2019-01-15T06:19:05.950Z,877.45
2019-01-15T06:20:05.740Z,877.47
2019-01-15T06:21:05.962Z,877.39
2019-01-15T06:22:05.692Z,877.43
2019-01-15T06:23:05.685Z,877.43
2019-01-15T06:24:05.710Z,877.41
2019-01-15T06:25:05.682Z,877.38
2019-01-15T06:26:05.894Z,877.37
2019-01-15T06:27:05.694Z,877.33
2019-01-15T06:28:05.639Z,877.35
2019-01-15T06:29:05.658Z,877.32
2019-01-15T06:30:05.927Z,877.34
2019-01-15T06:31:05.955Z,877.27
2019-01-15T06:32:05.956Z,877.27
2019-01-15T06:33:05.962Z,877.25
2019-01-15T06:34:05.642Z,877.22
2019-01-15T06:35:05.966Z,877.22
2019-01-15T06:36:05.612Z,877.23
2019-01-15T06:37:05.926Z,877.23
2019-01-15T06:39:38.158Z,877.22
2019-01-15T06:40:37.921Z,877.17
2019-01-15T06:42:30.969Z,877.13
2019-01-15T06:43:31.259Z,877.13
2019-01-15T06:45:24.600Z,877.04
2019-01-15T06:46:24.614Z,877.08
2019-01-15T06:47:24.328Z,877.02
2019-01-15T06:48:24.567Z,876.96
2019-01-15T06:49:24.594Z,876.93
2019-01-15T06:50:24.566Z,876.94
2019-01-15T06:51:24.561Z,876.87
2019-01-15T06:52:24.529Z,876.87
2019-01-15T06:53:24.301Z,876.89
2019-01-15T06:54:24.294Z,876.84
2019-01-15T06:55:24.546Z,876.82
2019-01-15T06:56:24.517Z,876.81
2019-01-15T06:57:24.471Z,876.81
2019-01-15T06:58:24.277Z,876.77
2019-01-15T06:59:24.492Z,876.81
2019-01-15T07:00:24.448Z,876.78
2019-01-15T07:01:24.484Z,876.79
2019-01-15T07:02:24.481Z,876.77
2019-01-15T07:03:24.218Z,876.78
2019-01-15T07:04:24.453Z,876.78
2019-01-15T07:05:24.468Z,876.75
2019-01-15T07:06:24.453Z,876.70
2019-01-15T07:07:24.453Z,876.71
2019-01-15T07:08:24.384Z,876.70
2019-01-15T07:09:24.424Z,876.67
2019-01-15T07:10:24.429Z,876.67
2019-01-15T07:11:24.366Z,876.61
2019-01-15T07:12:24.418Z,876.62
2019-01-15T07:13:24.415Z,876.58
2019-01-15T07:14:24.413Z,876.62
2019-01-15T07:15:24.104Z,876.64
2019-01-15T07:16:24.336Z,876.61
2019-01-15T07:17:24.326Z,876.63
2019-01-15T07:18:24.344Z,876.58
2019-01-15T07:19:24.335Z,876.58
2019-01-15T07:20:24.070Z,876.54
2019-01-15T07:21:24.294Z,876.55
2019-01-15T07:22:24.048Z,876.53
2019-01-15T07:23:24.048Z,876.59
2019-01-15T07:24:24.079Z,876.54
2019-01-15T07:25:24.259Z,876.54
2019-01-15T07:26:24.036Z,876.56
2019-01-15T07:27:24.300Z,876.55
2019-01-15T07:28:23.999Z,876.55
2019-01-15T07:29:24.008Z,876.57
2019-01-15T07:30:24.258Z,876.55
2019-01-15T07:31:24.024Z,876.58
2019-01-15T07:32:23.989Z,876.62
2019-01-15T07:33:24.243Z,876.56
2019-01-15T07:34:24.228Z,876.56
2019-01-15T07:35:24.195Z,876.56
2019-01-15T07:36:23.988Z,876.52
2019-01-15T07:37:23.943Z,876.52
2019-01-15T07:38:24.195Z,876.47
2019-01-15T07:39:23.923Z,876.46
2019-01-15T07:40:24.207Z,876.49
2019-01-15T07:41:23.954Z,876.42
2019-01-15T07:42:24.140Z,876.43
2019-01-15T07:43:24.204Z,876.48
2019-01-15T07:44:23.942Z,876.38
2019-01-15T07:45:23.889Z,876.45
2019-01-15T07:46:23.915Z,876.44
2019-01-15T07:47:23.908Z,876.39
2019-01-15T07:48:24.164Z,876.34
2019-01-15T07:49:23.903Z,876.28
2019-01-15T07:50:24.154Z,876.22
2019-01-15T07:51:24.138Z,876.16
2019-01-15T07:52:23.889Z,876.17
2019-01-15T07:53:24.128Z,876.15
2019-01-15T07:54:23.863Z,876.18
2019-01-15T07:55:23.860Z,876.20
2019-01-15T07:56:24.082Z,876.14
2019-01-15T07:57:23.813Z,876.16
2019-01-15T07:58:24.037Z,876.22
2019-01-15T07:59:23.778Z,876.19
2019-01-15T08:00:24.010Z,876.11
2019-01-15T08:01:24.040Z,876.15
2019-01-15T08:02:24.029Z,876.13
2019-01-15T08:03:23.789Z,876.12
2019-01-15T08:04:23.789Z,876.15
2019-01-15T08:05:23.745Z,876.12
2019-01-15T08:06:23.982Z,876.15
2019-01-15T08:07:23.989Z,876.14
2019-01-15T08:08:23.996Z,876.09
2019-01-15T08:09:23.950Z,876.12
2019-01-15T08:10:23.978Z,876.11
2019-01-15T08:11:23.706Z,876.13
2019-01-15T08:12:23.715Z,876.13
2019-01-15T08:13:23.726Z,876.06
2019-01-15T08:14:24.343Z,876.05
2019-01-15T08:15:23.911Z,876.04
2019-01-15T08:16:23.708Z,876.03
2019-01-15T08:17:23.915Z,876.03
2019-01-15T08:18:23.914Z,876.03
2019-01-15T08:19:23.644Z,876.05
2019-01-15T08:20:23.648Z,876.02
2019-01-15T08:21:23.670Z,875.98
2019-01-15T08:22:23.630Z,875.94
2019-01-15T08:23:23.606Z,875.92
2019-01-15T08:24:23.864Z,875.88
2019-01-15T08:25:23.629Z,875.88
2019-01-15T08:26:23.634Z,875.86
2019-01-15T08:27:23.617Z,875.85
2019-01-15T08:28:23.586Z,875.89
2019-01-15T08:29:23.834Z,875.82
2019-01-15T08:30:23.565Z,875.77
2019-01-15T08:31:23.596Z,875.80
2019-01-15T08:32:23.583Z,875.78
2019-01-15T08:33:23.812Z,875.76
2019-01-15T08:34:23.780Z,875.76
2019-01-15T08:35:23.532Z,875.75
2019-01-15T08:36:23.783Z,875.74
2019-01-15T08:37:23.787Z,875.76
2019-01-15T08:38:23.764Z,875.75
2019-01-15T08:39:23.486Z,875.73
2019-01-15T08:40:23.527Z,875.72
2019-01-15T08:41:23.792Z,875.74
2019-01-15T08:42:23.511Z,875.72
2019-01-15T08:43:23.736Z,875.71
2019-01-15T08:44:23.705Z,875.76
2019-01-15T08:45:23.465Z,875.76
2019-01-15T08:46:23.682Z,875.76
2019-01-15T08:47:23.668Z,875.67
2019-01-15T08:48:23.472Z,875.69
2019-01-15T08:50:23.420Z,875.69
2019-01-15T08:51:23.647Z,875.64
2019-01-15T08:52:23.656Z,875.66
2019-01-15T08:53:23.424Z,875.64
2019-01-15T08:54:23.691Z,875.63
2019-01-15T08:55:23.614Z,875.58
2019-01-15T08:56:23.617Z,875.63
2019-01-15T08:57:23.368Z,875.60
2019-01-15T08:58:23.366Z,875.60
2019-01-15T08:59:23.590Z,875.61
2019-01-15T09:00:23.369Z,875.63
2019-01-15T09:01:23.382Z,875.65
2019-01-15T09:02:23.635Z,875.68
2019-01-15T09:03:23.590Z,875.63
2019-01-15T09:04:23.339Z,875.68
2019-01-15T09:05:23.300Z,875.66
2019-01-15T09:06:23.573Z,875.68
2019-01-15T09:07:23.332Z,875.73
2019-01-15T09:08:23.322Z,875.68
2019-01-15T09:09:23.553Z,875.66
2019-01-15T09:10:23.310Z,875.66
2019-01-15T09:11:23.265Z,875.67
2019-01-15T09:12:23.489Z,875.67
2019-01-15T09:13:23.533Z,875.70
2019-01-15T09:14:27.053Z,875.73
2019-01-15T09:15:23.250Z,875.71
2019-01-15T09:16:23.470Z,875.76
2019-01-15T09:18:23.230Z,875.75
2019-01-15T09:19:23.479Z,875.72
2019-01-15T09:20:23.465Z,875.69
2019-01-15T09:21:23.209Z,875.64
2019-01-15T09:22:23.198Z,875.60
2019-01-15T09:23:23.210Z,875.60
2019-01-15T09:24:23.432Z,875.53
2019-01-15T09:25:23.169Z,875.56
2019-01-15T09:26:23.415Z,875.51
2019-01-15T09:27:23.458Z,875.51
2019-01-15T09:28:23.371Z,875.50
2019-01-15T09:29:23.442Z,875.51
2019-01-15T09:30:23.166Z,875.48
2019-01-15T09:31:23.154Z,875.49
2019-01-15T09:32:23.118Z,875.50
2019-01-15T09:33:23.108Z,875.50
2019-01-15T09:34:23.345Z,875.48
2019-01-15T09:35:23.086Z,875.52
2019-01-15T09:36:23.082Z,875.49
2019-01-15T09:37:23.070Z,875.50
2019-01-15T09:38:23.341Z,875.49
2019-01-15T09:39:23.326Z,875.48
2019-01-15T09:40:23.062Z,875.46
2019-01-15T09:41:23.351Z,875.46
2019-01-15T09:42:23.041Z,875.43
2019-01-15T09:43:23.033Z,875.42
2019-01-15T09:44:23.033Z,875.42
2019-01-15T09:45:23.020Z,875.42
2019-01-15T09:46:23.276Z,875.38
2019-01-15T09:47:23.041Z,875.36
2019-01-15T09:48:23.273Z,875.35
2019-01-15T09:49:23.001Z,875.35
2019-01-15T09:50:23.261Z,875.33
2019-01-15T09:51:23.210Z,875.37
2019-01-15T09:53:23.012Z,875.36
2019-01-15T09:54:22.959Z,875.35
2019-01-15T09:55:23.181Z,875.39
2019-01-15T09:56:23.193Z,875.41
2019-01-15T09:57:22.930Z,875.40
2019-01-15T09:58:23.192Z,875.36
2019-01-15T09:59:22.926Z,875.39
2019-01-15T10:00:22.947Z,875.41
2019-01-15T10:01:22.894Z,875.35
2019-01-15T10:02:24.023Z,875.34
2019-01-15T10:03:23.116Z,875.32
2019-01-15T10:04:22.896Z,875.33
2019-01-15T10:05:23.127Z,875.32
2019-01-15T10:06:22.912Z,875.28
2019-01-15T10:07:23.157Z,875.26
2019-01-15T10:08:23.098Z,875.26
2019-01-15T10:09:23.136Z,875.28
2019-01-15T10:10:23.081Z,875.25
2019-01-15T10:11:23.060Z,875.32
2019-01-15T10:12:22.853Z,875.28
2019-01-15T10:13:22.846Z,875.26
2019-01-15T10:14:22.812Z,875.26
2019-01-15T10:15:22.848Z,875.27
2019-01-15T10:16:23.049Z,875.24
2019-01-15T10:17:22.795Z,875.23
2019-01-15T10:18:22.817Z,875.23
2019-01-15T10:19:23.040Z,875.24
2019-01-15T10:20:23.001Z,875.24
2019-01-15T10:21:23.004Z,875.21
2019-01-15T10:22:22.998Z,875.25
2019-01-15T10:23:23.025Z,875.29
2019-01-15T10:24:23.031Z,875.26
2019-01-15T10:25:22.733Z,875.25
2019-01-15T10:26:22.765Z,875.24
2019-01-15T10:27:22.734Z,875.20
2019-01-15T10:28:22.719Z,875.25
2019-01-15T10:29:22.976Z,875.22
2019-01-15T10:30:22.698Z,875.23
2019-01-15T10:31:22.691Z,875.22
2019-01-15T10:32:22.694Z,875.19
2019-01-15T10:33:22.682Z,875.26
2019-01-15T10:35:22.925Z,875.22
2019-01-15T10:36:22.692Z,875.24
2019-01-15T10:37:22.924Z,875.17
2019-01-15T10:38:22.912Z,875.20
2019-01-15T10:39:22.858Z,875.18
2019-01-15T10:40:22.630Z,875.16
2019-01-15T10:41:22.663Z,875.17
2019-01-15T10:42:22.846Z,875.13
2019-01-15T10:43:22.905Z,875.17
2019-01-15T10:44:22.586Z,875.14
2019-01-15T10:45:22.876Z,875.17
2019-01-15T10:46:22.608Z,875.17
2019-01-15T10:47:22.569Z,875.17
2019-01-15T10:48:22.566Z,875.17
2019-01-15T10:49:22.608Z,875.17
2019-01-15T10:50:22.846Z,875.14
2019-01-15T10:51:22.816Z,875.19
2019-01-15T10:52:22.838Z,875.18
2019-01-15T10:53:22.807Z,875.20
2019-01-15T10:54:22.532Z,875.17
2019-01-15T10:55:22.816Z,875.19
2019-01-15T10:56:22.506Z,875.21
2019-01-15T10:57:22.503Z,875.20
2019-01-15T10:58:22.755Z,875.19
2019-01-15T10:59:22.738Z,875.14
2019-01-15T11:00:22.781Z,875.12
2019-01-15T11:01:22.742Z,875.16
2019-01-15T11:02:22.463Z,875.09
2019-01-15T11:03:22.690Z,875.11
2019-01-15T11:04:22.490Z,875.11
2019-01-15T11:05:22.474Z,875.10
2019-01-15T11:06:22.707Z,875.10
2019-01-15T11:07:22.694Z,875.09
2019-01-15T11:08:22.653Z,875.10
2019-01-15T11:09:22.461Z,875.08
2019-01-15T11:10:22.650Z,875.08
2019-01-15T11:11:22.426Z,875.09
2019-01-15T11:12:22.691Z,875.06
2019-01-15T11:13:22.422Z,875.06
2019-01-15T11:14:22.383Z,875.00
2019-01-15T11:15:22.392Z,875.00
2019-01-15T11:16:22.400Z,875.02
2019-01-15T11:17:22.365Z,875.01
2019-01-15T11:18:22.594Z,875.01
2019-01-15T11:19:22.618Z,875.03
2019-01-15T11:20:22.332Z,875.04
2019-01-15T11:21:22.371Z,875.02
2019-01-15T11:22:22.572Z,875.00
2019-01-15T11:23:22.615Z,875.02
2019-01-15T11:24:22.349Z,875.02
2019-01-15T11:25:22.301Z,875.00
2019-01-15T11:26:22.294Z,875.01
2019-01-15T11:27:22.296Z,875.05
2019-01-15T11:28:22.317Z,875.05
2019-01-15T11:29:22.550Z,875.01
2019-01-15T11:30:22.536Z,875.04
2019-01-15T11:31:22.257Z,875.06
2019-01-15T11:32:22.283Z,875.03
2019-01-15T11:33:22.255Z,875.03
2019-01-15T11:34:22.247Z,875.00
2019-01-15T11:35:22.234Z,875.01
2019-01-15T11:36:22.487Z,874.98
2019-01-15T11:37:22.699Z,874.98
2019-01-15T11:38:22.451Z,874.99
2019-01-15T11:39:22.202Z,874.94
2019-01-15T11:40:22.199Z,874.93
2019-01-15T11:41:22.493Z,874.95
2019-01-15T11:42:22.443Z,874.99
2019-01-15T11:43:22.399Z,874.99
2019-01-15T11:44:22.861Z,874.96
2019-01-15T11:45:22.183Z,874.97
2019-01-15T11:46:22.448Z,875.00
2019-01-15T11:47:22.177Z,875.01
2019-01-15T11:48:22.151Z,875.02
2019-01-15T11:49:22.120Z,875.02
2019-01-15T11:50:22.368Z,875.02
2019-01-15T11:51:22.372Z,874.98
2019-01-15T11:52:22.131Z,874.99
2019-01-15T11:53:22.331Z,874.96
2019-01-15T11:54:22.350Z,874.99
2019-01-15T11:55:22.087Z,874.97
2019-01-15T11:56:22.377Z,874.98
2019-01-15T11:57:22.109Z,875.00
2019-01-15T11:58:22.320Z,874.99
2019-01-15T11:59:22.308Z,875.00
2019-01-15T12:00:22.043Z,874.99
2019-01-15T12:01:22.312Z,874.98
2019-01-15T12:02:22.518Z,875.00
2019-01-15T12:03:22.262Z,874.98
2019-01-15T12:04:22.058Z,874.99
2019-01-15T12:06:22.049Z,875.01
2019-01-15T12:07:22.256Z,874.95
2019-01-15T12:08:22.049Z,874.99
2019-01-15T12:09:22.257Z,874.96
2019-01-15T12:10:21.978Z,874.97
2019-01-15T12:11:22.223Z,874.94
2019-01-15T12:12:22.209Z,874.97
2019-01-15T12:13:21.962Z,874.99
2019-01-15T12:14:22.243Z,874.97
2019-01-15T12:15:21.937Z,874.98
2019-01-15T12:16:21.939Z,875.01
2019-01-15T12:17:21.959Z,874.96
2019-01-15T12:18:21.953Z,874.95
2019-01-15T12:19:22.151Z,875.00
2019-01-15T12:20:22.200Z,874.99
2019-01-15T12:21:21.890Z,874.98
2019-01-15T12:22:21.927Z,874.99
2019-01-15T12:23:22.138Z,874.96
2019-01-15T12:24:21.872Z,874.94
2019-01-15T12:25:22.148Z,874.94
2019-01-15T12:26:22.101Z,874.91
2019-01-15T12:27:22.129Z,874.93
2019-01-15T12:28:21.887Z,874.93
2019-01-15T12:29:21.835Z,874.92
2019-01-15T12:30:22.107Z,874.95
2019-01-15T12:31:21.826Z,874.94
2019-01-15T12:32:21.821Z,874.93
2019-01-15T12:33:21.808Z,874.92
2019-01-15T12:34:22.099Z,874.90
2019-01-15T12:35:22.022Z,874.93
2019-01-15T12:36:22.046Z,874.93
2019-01-15T12:37:22.042Z,874.92
2019-01-15T12:38:22.076Z,874.92
2019-01-15T12:39:22.339Z,874.91
2019-01-15T12:40:22.017Z,874.88
2019-01-15T12:41:21.786Z,874.89
2019-01-15T12:42:21.735Z,874.89
2019-01-15T12:43:21.738Z,874.88
2019-01-15T12:44:22.033Z,874.87
2019-01-15T12:45:22.016Z,874.88
2019-01-15T12:46:21.942Z,874.83
2019-01-15T12:47:21.944Z,874.85
2019-01-15T12:48:21.985Z,874.83
2019-01-15T12:49:21.695Z,874.83
2019-01-15T12:50:21.707Z,874.83
2019-01-15T12:51:22.106Z,874.83
2019-01-15T12:52:21.718Z,874.81
2019-01-15T12:53:21.690Z,874.83
2019-01-15T12:55:21.945Z,874.77
2019-01-15T12:56:21.899Z,874.79
2019-01-15T12:57:21.639Z,874.78
2019-01-15T12:58:21.925Z,874.80
2019-01-15T12:59:21.629Z,874.81
2019-01-15T13:00:21.602Z,874.79
2019-01-15T13:02:21.610Z,874.76
2019-01-15T13:03:21.621Z,874.73
2019-01-15T13:04:21.620Z,874.70
2019-01-15T13:05:21.572Z,874.73
2019-01-15T13:06:21.868Z,874.73
2019-01-15T13:07:21.565Z,874.67
2019-01-15T13:08:21.839Z,874.67
2019-01-15T13:09:21.587Z,874.61
2019-01-15T13:10:21.577Z,874.66
2019-01-15T13:11:21.832Z,874.67
2019-01-15T13:12:21.819Z,874.59
2019-01-15T13:13:21.780Z,874.61
2019-01-15T13:14:21.784Z,874.56
2019-01-15T13:15:26.185Z,874.56
2019-01-15T13:16:21.487Z,874.56
2019-01-15T13:17:21.503Z,874.60
2019-01-15T13:18:21.749Z,874.59
2019-01-15T13:19:21.764Z,874.57
2019-01-15T13:20:21.489Z,874.52
2019-01-15T13:21:21.697Z,874.51
2019-01-15T13:22:21.706Z,874.52
2019-01-15T13:23:21.485Z,874.49
2019-01-15T13:24:21.467Z,874.49
2019-01-15T13:25:21.431Z,874.50
2019-01-15T13:26:21.731Z,874.50
2019-01-15T13:27:21.416Z,874.47
2019-01-15T13:28:21.646Z,874.47
2019-01-15T13:29:21.440Z,874.44
2019-01-15T13:30:21.653Z,874.47
2019-01-15T13:31:21.652Z,874.44
2019-01-15T13:32:21.375Z,874.43
2019-01-15T13:33:21.647Z,874.43
2019-01-15T13:34:21.630Z,874.41
2019-01-15T13:35:21.661Z,874.41
2019-01-15T13:36:21.624Z,874.37
2019-01-15T13:37:21.637Z,874.40
2019-01-15T13:38:21.614Z,874.39
2019-01-15T13:39:21.357Z,874.36
2019-01-15T13:40:21.316Z,874.42
2019-01-15T13:41:21.584Z,874.35
2019-01-15T13:42:21.342Z,874.33
2019-01-15T13:43:21.543Z,874.32
2019-01-15T13:44:21.344Z,874.30
2019-01-15T13:45:21.279Z,874.30
2019-01-15T13:46:21.521Z,874.29
2019-01-15T13:47:21.313Z,874.29
2019-01-15T13:48:21.275Z,874.27
2019-01-15T13:49:21.290Z,874.30
2019-01-15T13:50:21.249Z,874.28
2019-01-15T13:51:21.535Z,874.30
2019-01-15T13:52:21.477Z,874.28
2019-01-15T13:53:21.481Z,874.30
2019-01-15T13:54:21.255Z,874.29
2019-01-15T13:55:21.499Z,874.30
2019-01-15T13:56:21.502Z,874.28
2019-01-15T13:57:21.242Z,874.26
2019-01-15T13:58:21.433Z,874.30
2019-01-15T13:59:21.175Z,874.31
2019-01-15T14:00:21.420Z,874.32
2019-01-15T14:01:21.466Z,874.32
2019-01-15T14:02:21.201Z,874.28
2019-01-15T14:03:21.197Z,874.32
2019-01-15T14:04:21.155Z,874.27
2019-01-15T14:05:21.414Z,874.29
2019-01-15T14:06:21.147Z,874.26
2019-01-15T14:07:21.373Z,874.23
2019-01-15T14:08:21.120Z,874.25
2019-01-15T14:09:21.411Z,874.28
2019-01-15T14:10:21.103Z,874.21
2019-01-15T14:11:21.334Z,874.20
2019-01-15T14:12:21.347Z,874.21
2019-01-15T14:13:21.378Z,874.24
2019-01-15T14:14:21.107Z,874.24
2019-01-15T14:15:21.070Z,874.20
2019-01-15T14:16:21.291Z,874.21
2019-01-15T14:17:21.101Z,874.17
2019-01-15T14:18:21.053Z,874.20
2019-01-15T14:19:21.318Z,874.16
2019-01-15T14:20:21.318Z,874.19
2019-01-15T14:21:21.303Z,874.17
2019-01-15T14:22:21.293Z,874.14
2019-01-15T14:23:21.291Z,874.08